Time;durP1;ratioP1;P1;durP2;ratioP2;P2;SDS_P1;SDS_P2;PMS_P1;PMS_P2;Temp;Humidity;BMP_temperature;BMP_pressure;BME280_temperature;BME280_humidity;BME280_pressure;Samples;Min_cycle;Max_cycle;Signal;HPM_P1;HPM_P2
2024/03/24 00:00:24;;;;;;;1.23;0.90;;;2.30;99.90;;;;;;2022670;29;20287;-70
2024/03/24 00:01:26;;;;;;;6.93;1.67;;;2.30;99.90;;;;;;2030197;29;20952;-70
2024/03/24 00:02:27;;;;;;;1.25;1.15;;;2.30;99.90;;;;;;2031031;29;20238;-71
2024/03/24 00:03:27;;;;;;;2.47;1.20;;;2.30;99.90;;;;;;2022211;29;20562;-70
2024/03/24 00:04:28;;;;;;;1.37;0.70;;;2.30;99.90;;;;;;2030263;29;20235;-71
2024/03/24 00:05:29;;;;;;;1.97;0.83;;;2.30;99.90;;;;;;2011552;29;20253;-71
2024/03/24 00:06:29;;;;;;;2.33;0.80;;;2.30;99.90;;;;;;2014768;29;20712;-71
2024/03/24 00:07:30;;;;;;;0.70;0.70;;;2.30;99.90;;;;;;2022423;29;20306;-70
2024/03/24 00:08:31;;;;;;;1.63;1.13;;;2.20;99.90;;;;;;2015460;29;20236;-71
2024/03/24 00:09:32;;;;;;;0.82;0.75;;;2.20;99.90;;;;;;2022144;29;20231;-71
2024/03/24 00:10:32;;;;;;;1.30;0.70;;;2.20;99.90;;;;;;2021996;29;20235;-72
2024/03/24 00:11:33;;;;;;;0.80;0.70;;;2.20;99.90;;;;;;2030177;29;20231;-70
2024/03/24 00:12:34;;;;;;;0.80;0.60;;;2.20;99.90;;;;;;2038005;29;20262;-70
2024/03/24 00:13:35;;;;;;;1.03;0.53;;;2.20;99.90;;;;;;2030777;29;20286;-70
2024/03/24 00:14:35;;;;;;;1.40;0.70;;;2.20;99.90;;;;;;2022549;29;20682;-70
2024/03/24 00:15:36;;;;;;;1.43;0.80;;;2.20;99.90;;;;;;2038054;29;20273;-70
2024/03/24 00:16:38;;;;;;;1.00;0.93;;;2.20;99.90;;;;;;2038932;29;20235;-70
2024/03/24 00:17:38;;;;;;;0.63;0.57;;;2.20;99.90;;;;;;2033800;29;20223;-71
2024/03/24 00:18:39;;;;;;;2.27;0.60;;;2.20;99.90;;;;;;2027294;29;20240;-70
2024/03/24 00:19:40;;;;;;;1.37;0.60;;;2.20;99.90;;;;;;2018550;29;20714;-71
2024/03/24 00:20:40;;;;;;;1.40;0.53;;;2.20;99.90;;;;;;2026003;29;20244;-70
2024/03/24 00:21:41;;;;;;;1.67;0.70;;;2.20;99.90;;;;;;2026427;29;20232;-70
2024/03/24 00:22:42;;;;;;;0.77;0.60;;;2.20;99.90;;;;;;2026429;29;20264;-70
2024/03/24 00:23:42;;;;;;;0.50;0.50;;;2.20;99.90;;;;;;2030433;29;20250;-70
2024/03/24 00:24:43;;;;;;;0.50;0.50;;;2.20;99.90;;;;;;2031499;29;20236;-70
2024/03/24 00:25:44;;;;;;;0.40;0.40;;;2.10;99.90;;;;;;2022261;29;20272;-70
2024/03/24 00:26:45;;;;;;;0.77;0.50;;;2.20;99.90;;;;;;2022971;29;20232;-70
2024/03/24 00:27:45;;;;;;;1.75;0.75;;;2.20;99.90;;;;;;2022867;29;20236;-70
2024/03/24 00:28:46;;;;;;;0.70;0.60;;;2.20;99.90;;;;;;2022194;29;20320;-70
2024/03/24 00:29:47;;;;;;;0.77;0.63;;;2.30;99.90;;;;;;2037689;29;20318;-71
2024/03/24 00:30:47;;;;;;;0.57;0.57;;;2.30;99.90;;;;;;2030850;29;20716;-70
2024/03/24 00:31:48;;;;;;;0.70;0.70;;;2.30;99.90;;;;;;2022566;29;20236;-70
2024/03/24 00:32:51;;;;;;;0.60;0.60;;;2.30;99.90;;;;;;2015275;29;20236;-70
2024/03/24 00:33:52;;;;;;;0.63;0.60;;;2.20;99.90;;;;;;2023800;29;20272;-70
2024/03/24 00:34:52;;;;;;;1.90;0.73;;;2.30;99.90;;;;;;2038552;29;20730;-70
2024/03/24 00:35:53;;;;;;;0.50;0.50;;;2.30;99.90;;;;;;2026916;29;20547;-72
2024/03/24 00:36:54;;;;;;;0.73;0.60;;;2.20;99.90;;;;;;2019231;29;20269;-70
2024/03/24 00:37:54;;;;;;;0.87;0.67;;;2.20;99.90;;;;;;2022404;29;20236;-71
2024/03/24 00:38:55;;;;;;;0.80;0.67;;;2.20;99.90;;;;;;2026068;29;20718;-70
2024/03/24 00:39:56;;;;;;;0.50;0.50;;;2.10;99.90;;;;;;2026355;29;20267;-69
2024/03/24 00:40:56;;;;;;;1.27;0.70;;;2.10;99.90;;;;;;2031517;29;20269;-70
2024/03/24 00:41:57;;;;;;;1.20;0.67;;;2.10;99.90;;;;;;2022513;29;20299;-71
2024/03/24 00:42:58;;;;;;;0.90;0.90;;;2.10;99.90;;;;;;2014683;29;20230;-69
2024/03/24 00:43:59;;;;;;;0.77;0.77;;;2.10;99.90;;;;;;2022381;29;20310;-70
2024/03/24 00:45:00;;;;;;;0.40;0.40;;;2.10;99.90;;;;;;2014265;29;20327;-69
2024/03/24 00:46:00;;;;;;;0.50;0.50;;;2.10;99.90;;;;;;2015420;29;20234;-70
2024/03/24 00:47:01;;;;;;;0.60;0.60;;;2.10;99.90;;;;;;2021596;29;20238;-71
2024/03/24 00:48:02;;;;;;;0.60;0.50;;;2.10;99.90;;;;;;2022116;29;20290;-69
2024/03/24 00:49:03;;;;;;;0.60;0.50;;;2.00;99.90;;;;;;2021840;29;20223;-70
2024/03/24 00:50:05;;;;;;;0.60;0.55;;;2.00;99.90;;;;;;2022390;29;20189;-70
2024/03/24 00:51:06;;;;;;;0.50;0.50;;;2.00;99.90;;;;;;2030787;29;20211;-70
2024/03/24 00:52:06;;;;;;;0.50;0.50;;;2.00;99.90;;;;;;2024695;29;20197;-71
2024/03/24 00:53:07;;;;;;;0.60;0.60;;;2.00;99.90;;;;;;2025557;29;20190;-70
2024/03/24 00:54:08;;;;;;;0.60;0.60;;;2.00;99.90;;;;;;2029107;29;20202;-70
2024/03/24 00:55:08;;;;;;;0.50;0.50;;;2.10;99.90;;;;;;2037958;29;20245;-70
2024/03/24 00:56:09;;;;;;;0.40;0.40;;;2.00;99.90;;;;;;2037991;29;20209;-70
2024/03/24 00:57:10;;;;;;;0.67;0.60;;;2.00;99.90;;;;;;2026428;29;20199;-70
2024/03/24 00:58:10;;;;;;;1.60;0.60;;;2.00;99.90;;;;;;2034477;29;20648;-70
2024/03/24 00:59:11;;;;;;;0.73;0.70;;;2.00;99.90;;;;;;2030621;29;20197;-70
2024/03/24 01:00:12;;;;;;;0.50;0.50;;;2.00;99.90;;;;;;2021865;29;20200;-70
2024/03/24 01:01:13;;;;;;;1.58;0.70;;;2.00;99.90;;;;;;2021504;29;20291;-70
2024/03/24 01:02:14;;;;;;;0.77;0.67;;;1.90;99.90;;;;;;2022698;29;20642;-70
2024/03/24 01:03:15;;;;;;;0.47;0.47;;;1.90;99.90;;;;;;2030760;29;20315;-70
2024/03/24 01:04:15;;;;;;;0.60;0.60;;;1.90;99.90;;;;;;2031411;29;20667;-70
2024/03/24 01:05:16;;;;;;;0.70;0.60;;;2.00;99.90;;;;;;2021780;29;20252;-70
2024/03/24 01:06:17;;;;;;;0.47;0.47;;;2.00;99.90;;;;;;2021698;29;20194;-70
2024/03/24 01:07:18;;;;;;;0.77;0.67;;;2.00;99.90;;;;;;2030506;29;20187;-70
2024/03/24 01:08:18;;;;;;;1.80;1.20;;;2.00;99.90;;;;;;2025999;29;20184;-70
2024/03/24 01:09:19;;;;;;;0.70;0.60;;;2.00;99.90;;;;;;2025685;29;21040;-70
2024/03/24 01:10:20;;;;;;;0.57;0.57;;;2.10;99.90;;;;;;2026100;29;20308;-70
2024/03/24 01:11:20;;;;;;;1.03;0.60;;;2.10;99.90;;;;;;2034072;29;20232;-70
2024/03/24 01:12:24;;;;;;;0.60;0.57;;;2.10;99.90;;;;;;2037159;29;20702;-70
2024/03/24 01:13:24;;;;;;;0.50;0.50;;;2.00;99.90;;;;;;2026249;29;20263;-70
2024/03/24 01:14:25;;;;;;;0.60;0.60;;;2.10;99.90;;;;;;2029707;29;20237;-70
2024/03/24 01:15:27;;;;;;;2.23;0.87;;;2.10;99.90;;;;;;2038200;29;20234;-70
2024/03/24 01:16:28;;;;;;;0.60;0.60;;;2.10;99.90;;;;;;2029482;29;20234;-70
2024/03/24 01:17:28;;;;;;;1.17;0.63;;;2.10;99.90;;;;;;2023115;29;20246;-69
2024/03/24 01:18:29;;;;;;;0.90;0.70;;;2.10;99.90;;;;;;2023050;29;20226;-70
2024/03/24 01:19:30;;;;;;;2.00;0.60;;;2.00;99.90;;;;;;2014302;29;20245;-70
2024/03/24 01:20:30;;;;;;;0.53;0.53;;;1.90;99.90;;;;;;2022597;29;20622;-69
2024/03/24 01:21:31;;;;;;;0.60;0.50;;;2.00;99.90;;;;;;2023729;29;20240;-70
2024/03/24 01:22:32;;;;;;;1.42;0.65;;;2.00;99.90;;;;;;2023212;29;20248;-70
2024/03/24 01:23:33;;;;;;;1.00;0.47;;;2.00;99.90;;;;;;2032168;29;20242;-70
2024/03/24 01:24:34;;;;;;;0.50;0.50;;;2.00;99.90;;;;;;2027722;29;20244;-70
2024/03/24 01:25:34;;;;;;;0.65;0.65;;;2.10;99.90;;;;;;2027612;29;20240;-70
2024/03/24 01:26:35;;;;;;;0.80;0.70;;;2.20;99.90;;;;;;2027418;29;20238;-71
2024/03/24 01:27:36;;;;;;;0.60;0.60;;;2.20;99.90;;;;;;2035063;29;20242;-70
2024/03/24 01:28:36;;;;;;;0.80;0.60;;;2.30;99.90;;;;;;2039025;29;20229;-70
2024/03/24 01:29:37;;;;;;;0.60;0.60;;;2.30;99.90;;;;;;2023360;29;20235;-70
2024/03/24 01:30:38;;;;;;;0.50;0.50;;;2.20;99.90;;;;;;2023699;29;20620;-70
2024/03/24 01:31:38;;;;;;;0.77;0.60;;;2.20;99.90;;;;;;2031769;29;20231;-70
2024/03/24 01:32:39;;;;;;;0.83;0.57;;;2.10;99.90;;;;;;2015582;29;20228;-70
2024/03/24 01:33:40;;;;;;;0.50;0.50;;;2.00;99.90;;;;;;2015843;29;20248;-70
2024/03/24 01:34:40;;;;;;;0.60;0.60;;;2.00;99.90;;;;;;2032244;29;20699;-70
2024/03/24 01:35:47;;;;;;;0.60;0.60;;;2.00;99.90;;;;;;2031206;29;20359;-70
2024/03/24 01:36:48;;;;;;;0.68;0.68;;;2.00;99.90;;;;;;2027991;29;20234;-70
2024/03/24 01:37:49;;;;;;;0.53;0.53;;;2.00;99.90;;;;;;2031070;29;20723;-69
2024/03/24 01:38:49;;;;;;;0.60;0.60;;;2.10;99.90;;;;;;2036546;29;20242;-70
2024/03/24 01:39:50;;;;;;;0.80;0.57;;;2.10;99.90;;;;;;2031223;29;20238;-71
2024/03/24 01:40:51;;;;;;;0.50;0.50;;;2.10;99.90;;;;;;2024395;29;20236;-70
2024/03/24 01:41:52;;;;;;;0.55;0.55;;;2.20;99.90;;;;;;2015646;29;20624;-70
2024/03/24 01:42:53;;;;;;;0.60;0.60;;;2.20;99.90;;;;;;2016075;29;20244;-70
2024/03/24 01:43:55;;;;;;;1.53;0.73;;;2.20;99.90;;;;;;2031592;29;20261;-70
2024/03/24 01:44:55;;;;;;;2.17;0.80;;;2.20;99.90;;;;;;2028297;29;20329;-70
2024/03/24 01:45:57;;;;;;;1.13;0.90;;;2.10;99.90;;;;;;2020550;29;20242;-70
2024/03/24 01:46:57;;;;;;;2.00;0.80;;;2.10;99.90;;;;;;2031904;29;20226;-70
2024/03/24 01:47:58;;;;;;;1.23;0.60;;;2.00;99.90;;;;;;2038599;29;20814;-70
2024/03/24 01:48:59;;;;;;;0.50;0.50;;;2.00;99.90;;;;;;2039031;29;20407;-69
2024/03/24 01:50:01;;;;;;;0.55;0.55;;;2.00;99.90;;;;;;2038902;29;20293;-70
2024/03/24 01:51:08;;;;;;;0.50;0.50;;;2.00;99.90;;;;;;2022328;29;20280;-70
2024/03/24 01:52:13;;;;;;;1.90;0.57;;;2.00;99.90;;;;;;2023909;29;20220;-70
2024/03/24 01:53:14;;;;;;;2.65;0.60;;;2.00;99.90;;;;;;2023523;29;20196;-71
2024/03/24 01:54:16;;;;;;;0.50;0.50;;;2.00;99.90;;;;;;2015629;29;20193;-70
2024/03/24 01:55:17;;;;;;;0.85;0.70;;;2.00;99.90;;;;;;2024243;29;20192;-71
2024/03/24 01:56:17;;;;;;;0.90;0.70;;;2.00;99.90;;;;;;2023442;29;20211;-70
2024/03/24 01:57:18;;;;;;;0.60;0.60;;;2.00;99.90;;;;;;2019573;29;20218;-70
2024/03/24 01:58:19;;;;;;;0.53;0.50;;;2.00;99.90;;;;;;2027788;29;20698;-70
2024/03/24 01:59:20;;;;;;;0.80;0.80;;;2.00;99.90;;;;;;2021341;29;20231;-70
2024/03/24 02:00:21;;;;;;;0.50;0.50;;;2.00;99.90;;;;;;2031017;29;20767;-70
2024/03/24 02:01:22;;;;;;;0.60;0.60;;;2.00;99.90;;;;;;2038593;29;20372;-71
2024/03/24 02:02:22;;;;;;;0.80;0.52;;;2.00;99.90;;;;;;2030009;29;20258;-71
2024/03/24 02:03:23;;;;;;;1.03;0.53;;;1.90;99.90;;;;;;2027311;29;20240;-70
2024/03/24 02:04:24;;;;;;;0.60;0.60;;;1.90;99.90;;;;;;2026546;29;20231;-73
2024/03/24 02:05:26;;;;;;;0.50;0.50;;;1.90;99.90;;;;;;2022556;29;20244;-70
2024/03/24 02:06:27;;;;;;;0.90;0.63;;;2.00;99.90;;;;;;2030372;29;20229;-70
2024/03/24 02:07:27;;;;;;;0.60;0.60;;;2.00;99.90;;;;;;2030323;29;20237;-69
2024/03/24 02:08:29;;;;;;;0.80;0.60;;;2.00;99.90;;;;;;2031070;29;20251;-70
2024/03/24 02:09:30;;;;;;;1.15;0.80;;;2.00;99.90;;;;;;2030964;29;20317;-71
2024/03/24 02:10:31;;;;;;;0.43;0.43;;;2.00;99.90;;;;;;2014664;29;20703;-70
2024/03/24 02:11:32;;;;;;;0.43;0.43;;;2.00;99.90;;;;;;2015278;29;20243;-70
2024/03/24 02:12:32;;;;;;;0.60;0.60;;;2.00;99.90;;;;;;2030205;29;20242;-71
2024/03/24 02:13:33;;;;;;;0.60;0.60;;;2.10;99.90;;;;;;2037745;29;20229;-70
2024/03/24 02:14:34;;;;;;;1.37;0.50;;;2.10;99.90;;;;;;2022113;29;20329;-70
2024/03/24 02:15:35;;;;;;;0.40;0.40;;;2.00;99.90;;;;;;2022378;29;20237;-70
2024/03/24 02:16:35;;;;;;;0.97;0.70;;;2.00;99.90;;;;;;2031390;29;20245;-70
2024/03/24 02:17:36;;;;;;;0.53;0.40;;;2.00;99.90;;;;;;2031481;29;20675;-70
2024/03/24 02:18:37;;;;;;;0.50;0.40;;;2.00;99.90;;;;;;2029163;29;20326;-70
2024/03/24 02:19:37;;;;;;;0.40;0.40;;;1.90;99.90;;;;;;2029990;29;20754;-70
2024/03/24 02:20:38;;;;;;;0.63;0.50;;;1.90;99.90;;;;;;2029824;29;20383;-70
2024/03/24 02:21:39;;;;;;;0.37;0.37;;;1.90;99.90;;;;;;2022465;29;20337;-71
2024/03/24 02:22:40;;;;;;;0.50;0.50;;;1.90;99.90;;;;;;2016054;29;20332;-70
2024/03/24 02:23:41;;;;;;;0.47;0.47;;;1.90;99.90;;;;;;2022257;29;20252;-70
2024/03/24 02:24:41;;;;;;;0.50;0.50;;;1.90;99.90;;;;;;2037965;29;20234;-69
2024/03/24 02:25:42;;;;;;;0.97;0.50;;;1.90;99.90;;;;;;2031373;29;20247;-71
2024/03/24 02:26:43;;;;;;;0.63;0.60;;;1.90;99.90;;;;;;2014641;29;20275;-70
2024/03/24 02:27:44;;;;;;;0.50;0.50;;;1.90;99.90;;;;;;2023750;29;20232;-70
2024/03/24 02:28:45;;;;;;;0.60;0.60;;;1.90;99.90;;;;;;2029960;29;20273;-70
2024/03/24 02:29:45;;;;;;;0.50;0.50;;;1.90;99.90;;;;;;2031229;29;20231;-70
2024/03/24 02:30:46;;;;;;;0.50;0.50;;;1.90;99.90;;;;;;2031107;29;21004;-70
2024/03/24 02:31:47;;;;;;;0.60;0.60;;;1.80;99.90;;;;;;2025970;29;20238;-71
2024/03/24 02:32:47;;;;;;;2.53;0.73;;;1.80;99.90;;;;;;2025970;29;20259;-71
2024/03/24 02:33:48;;;;;;;1.83;0.70;;;1.80;99.90;;;;;;2038641;29;20265;-70
2024/03/24 02:34:49;;;;;;;1.33;0.40;;;1.70;99.90;;;;;;2037918;29;20226;-71
2024/03/24 02:35:50;;;;;;;1.57;1.03;;;1.70;99.90;;;;;;2026314;29;20641;-71
2024/03/24 02:36:50;;;;;;;1.67;0.55;;;1.60;99.90;;;;;;2022343;29;20239;-71
2024/03/24 02:37:51;;;;;;;1.23;0.83;;;1.60;99.90;;;;;;2022278;29;20776;-70
2024/03/24 02:38:52;;;;;;;0.60;0.50;;;1.50;99.90;;;;;;2022104;29;20310;-70
2024/03/24 02:39:53;;;;;;;0.50;0.50;;;1.50;99.90;;;;;;2039151;29;20322;-71
2024/03/24 02:40:54;;;;;;;0.57;0.57;;;1.50;99.90;;;;;;2037589;29;20233;-70
2024/03/24 02:41:54;;;;;;;0.50;0.50;;;1.50;99.90;;;;;;2022600;29;20237;-70
2024/03/24 02:42:55;;;;;;;1.10;0.67;;;1.50;99.90;;;;;;2023133;29;20289;-70
2024/03/24 02:43:56;;;;;;;0.90;0.63;;;1.50;99.90;;;;;;2037451;29;20249;-69
2024/03/24 02:44:57;;;;;;;0.40;0.40;;;1.60;99.90;;;;;;2039158;29;20232;-70
2024/03/24 02:45:58;;;;;;;0.60;0.50;;;1.70;99.90;;;;;;2022261;29;20233;-71
2024/03/24 02:46:59;;;;;;;0.98;0.60;;;1.70;99.90;;;;;;2014492;29;20701;-70
2024/03/24 02:47:59;;;;;;;1.17;0.50;;;1.70;99.90;;;;;;2022045;29;20234;-71
2024/03/24 02:49:00;;;;;;;0.70;0.50;;;1.80;99.90;;;;;;2021557;29;20586;-70
2024/03/24 02:50:01;;;;;;;0.70;0.70;;;1.80;99.90;;;;;;2014323;29;20268;-70
2024/03/24 02:51:01;;;;;;;0.85;0.70;;;1.80;99.90;;;;;;2015193;29;20200;-70
2024/03/24 02:52:02;;;;;;;0.50;0.50;;;1.80;99.90;;;;;;2022811;29;20191;-70
2024/03/24 02:53:04;;;;;;;1.07;0.63;;;1.80;99.90;;;;;;2026938;29;20192;-70
2024/03/24 02:54:05;;;;;;;1.05;0.75;;;1.90;99.90;;;;;;2029842;29;20687;-70
2024/03/24 02:55:06;;;;;;;0.63;0.60;;;1.90;99.90;;;;;;2036061;29;20186;-70
2024/03/24 02:56:10;;;;;;;1.10;0.60;;;1.80;99.90;;;;;;2038843;29;20822;-70
2024/03/24 02:57:11;;;;;;;0.40;0.40;;;1.80;99.90;;;;;;2031023;29;20202;-70
2024/03/24 02:58:13;;;;;;;1.02;0.50;;;1.90;99.90;;;;;;2024714;29;20201;-69
2024/03/24 02:59:13;;;;;;;0.40;0.40;;;1.90;99.90;;;;;;2016175;29;20246;-71
2024/03/24 03:00:14;;;;;;;0.90;0.57;;;1.90;99.90;;;;;;2020929;29;20287;-70
2024/03/24 03:01:15;;;;;;;0.73;0.60;;;2.00;99.90;;;;;;2029178;29;20193;-70
2024/03/24 03:02:16;;;;;;;1.90;0.70;;;2.00;99.90;;;;;;2013010;29;20204;-71
2024/03/24 03:03:17;;;;;;;0.40;0.40;;;1.90;99.90;;;;;;2005576;29;20190;-71
2024/03/24 03:04:18;;;;;;;1.23;0.60;;;1.90;99.90;;;;;;2021817;29;20752;-70
2024/03/24 03:05:19;;;;;;;0.60;0.60;;;1.90;99.90;;;;;;2030264;29;20219;-70
2024/03/24 03:06:20;;;;;;;0.60;0.60;;;1.90;99.90;;;;;;2028353;29;20222;-70
2024/03/24 03:07:20;;;;;;;1.13;0.60;;;1.90;99.90;;;;;;2014061;29;20374;-70
2024/03/24 03:08:21;;;;;;;0.80;0.53;;;2.00;99.90;;;;;;2020326;29;20247;-71
2024/03/24 03:09:22;;;;;;;0.70;0.57;;;2.00;99.90;;;;;;2035366;29;20826;-70
2024/03/24 03:10:22;;;;;;;1.33;0.70;;;2.00;99.90;;;;;;2020354;29;20242;-70
2024/03/24 03:11:23;;;;;;;1.17;0.80;;;2.00;99.90;;;;;;2020943;29;20273;-70
2024/03/24 03:12:24;;;;;;;0.60;0.60;;;1.90;99.90;;;;;;2020374;29;20251;-70
2024/03/24 03:13:24;;;;;;;0.40;0.40;;;1.90;99.90;;;;;;2029142;29;20237;-70
2024/03/24 03:14:25;;;;;;;0.60;0.60;;;1.90;99.90;;;;;;2030659;29;20762;-70
2024/03/24 03:15:26;;;;;;;0.90;0.63;;;1.80;99.90;;;;;;2023261;29;20246;-70
2024/03/24 03:16:27;;;;;;;1.33;0.65;;;1.80;99.90;;;;;;2037752;29;20657;-70
2024/03/24 03:17:28;;;;;;;0.60;0.60;;;1.90;99.90;;;;;;2037053;29;20233;-70
2024/03/24 03:18:28;;;;;;;0.50;0.50;;;1.90;99.90;;;;;;2029355;29;20281;-70
2024/03/24 03:19:29;;;;;;;0.53;0.53;;;2.00;99.90;;;;;;2028151;29;20310;-70
2024/03/24 03:20:30;;;;;;;1.07;0.77;;;2.00;99.90;;;;;;2029663;29;20261;-70
2024/03/24 03:21:30;;;;;;;0.87;0.60;;;2.00;99.90;;;;;;2026874;29;20313;-71
2024/03/24 03:22:31;;;;;;;0.60;0.60;;;2.00;99.90;;;;;;2020582;29;20600;-70
2024/03/24 03:23:32;;;;;;;1.37;0.80;;;2.00;99.90;;;;;;2031518;29;20245;-71
2024/03/24 03:24:32;;;;;;;0.60;0.60;;;2.00;99.90;;;;;;2015472;29;20367;-70
2024/03/24 03:25:35;;;;;;;0.63;0.63;;;2.00;99.90;;;;;;2006429;29;20245;-70
2024/03/24 03:26:35;;;;;;;1.00;0.60;;;2.00;99.90;;;;;;2023653;29;20332;-70
2024/03/24 03:27:36;;;;;;;1.97;0.87;;;1.90;99.90;;;;;;2021543;29;20260;-71
2024/03/24 03:28:37;;;;;;;0.50;0.50;;;1.90;99.90;;;;;;2021417;29;20226;-70
2024/03/24 03:29:37;;;;;;;3.20;0.80;;;1.80;99.90;;;;;;2027746;29;20237;-70
2024/03/24 03:30:40;;;;;;;0.90;0.80;;;1.80;99.90;;;;;;2020839;29;20225;-71
2024/03/24 03:31:40;;;;;;;0.63;0.63;;;1.80;99.90;;;;;;2018158;29;20231;-70
2024/03/24 03:32:41;;;;;;;0.40;0.40;;;1.70;99.90;;;;;;2013214;29;20232;-70
2024/03/24 03:33:42;;;;;;;0.60;0.60;;;1.80;99.90;;;;;;2013539;29;20233;-71
2024/03/24 03:34:43;;;;;;;1.20;0.70;;;1.80;99.90;;;;;;2013061;29;20243;-70
2024/03/24 03:35:43;;;;;;;0.70;0.70;;;1.90;99.90;;;;;;2022645;29;20228;-70
2024/03/24 03:36:44;;;;;;;2.10;0.70;;;2.00;99.90;;;;;;2037020;29;20317;-70
2024/03/24 03:37:45;;;;;;;0.60;0.50;;;2.00;99.90;;;;;;2038431;29;20284;-70
2024/03/24 03:38:45;;;;;;;1.37;0.60;;;2.00;99.90;;;;;;2036292;29;20234;-70
2024/03/24 03:39:46;;;;;;;0.57;0.47;;;2.00;99.90;;;;;;2033751;29;20229;-70
2024/03/24 03:40:47;;;;;;;0.70;0.60;;;2.00;99.90;;;;;;2017858;29;20237;-70
2024/03/24 03:41:47;;;;;;;0.60;0.60;;;2.00;99.90;;;;;;2006282;29;20306;-70
2024/03/24 03:42:48;;;;;;;0.90;0.50;;;1.90;99.90;;;;;;2022746;29;20683;-70
2024/03/24 03:43:49;;;;;;;1.13;0.70;;;1.90;99.90;;;;;;2029001;29;20287;-70
2024/03/24 03:44:49;;;;;;;1.13;0.57;;;2.00;99.90;;;;;;2031200;29;20239;-70
2024/03/24 03:45:50;;;;;;;1.60;0.77;;;2.00;99.90;;;;;;2037798;29;20288;-71
2024/03/24 03:46:51;;;;;;;4.10;0.70;;;2.00;99.90;;;;;;2021882;29;20298;-70
2024/03/24 03:47:52;;;;;;;2.03;1.33;;;1.90;99.90;;;;;;2013628;29;20282;-70
2024/03/24 03:48:53;;;;;;;1.07;0.53;;;1.90;99.90;;;;;;2014031;29;20635;-70
2024/03/24 03:49:54;;;;;;;1.10;0.50;;;1.90;99.90;;;;;;2020302;29;20664;-70
2024/03/24 03:50:54;;;;;;;1.70;0.80;;;1.80;99.90;;;;;;2021474;29;20480;-71
2024/03/24 03:51:58;;;;;;;0.50;0.50;;;1.90;99.90;;;;;;2021361;29;20325;-70
2024/03/24 03:52:58;;;;;;;1.10;0.60;;;1.90;99.90;;;;;;2014081;29;20229;-70
2024/03/24 03:53:59;;;;;;;0.90;0.50;;;1.90;99.90;;;;;;2020481;29;20241;-70
2024/03/24 03:55:00;;;;;;;0.73;0.67;;;1.80;99.90;;;;;;2021628;29;20234;-71
2024/03/24 03:56:01;;;;;;;0.90;0.60;;;1.80;99.90;;;;;;2020677;29;20232;-69
2024/03/24 03:57:01;;;;;;;1.27;0.70;;;1.80;99.90;;;;;;2030748;29;20198;-71
2024/03/24 03:58:03;;;;;;;0.60;0.50;;;1.80;99.90;;;;;;2028255;29;20194;-70
2024/03/24 03:59:05;;;;;;;0.80;0.77;;;1.80;99.90;;;;;;2025825;29;20198;-70
2024/03/24 04:00:10;;;;;;;1.10;0.80;;;1.90;99.90;;;;;;2020906;29;20196;-70
2024/03/24 04:01:11;;;;;;;1.25;0.70;;;1.90;99.90;;;;;;2022326;29;20663;-69
2024/03/24 04:02:12;;;;;;;0.60;0.60;;;1.90;99.90;;;;;;2020879;29;20196;-70
2024/03/24 04:03:13;;;;;;;0.80;0.53;;;1.90;99.90;;;;;;2021149;29;20657;-70
2024/03/24 04:04:13;;;;;;;0.63;0.63;;;1.90;99.90;;;;;;2021944;29;20303;-70
2024/03/24 04:05:15;;;;;;;0.63;0.63;;;2.00;99.90;;;;;;2021276;29;20198;-71
2024/03/24 04:06:16;;;;;;;0.60;0.60;;;2.00;99.90;;;;;;2029257;29;20192;-71
2024/03/24 04:07:17;;;;;;;1.23;0.65;;;2.10;99.90;;;;;;2029708;29;20597;-70
2024/03/24 04:08:18;;;;;;;1.80;0.60;;;2.10;99.90;;;;;;2028418;29;20205;-70
2024/03/24 04:09:19;;;;;;;0.80;0.70;;;2.10;99.90;;;;;;2029664;29;20191;-70
2024/03/24 04:10:19;;;;;;;0.80;0.80;;;2.10;99.90;;;;;;2020903;29;20570;-69
2024/03/24 04:11:21;;;;;;;3.27;0.77;;;2.10;99.90;;;;;;2014379;29;20245;-70
2024/03/24 04:12:22;;;;;;;0.73;0.70;;;2.10;99.90;;;;;;2014928;29;20239;-70
2024/03/24 04:13:22;;;;;;;0.57;0.57;;;2.10;99.90;;;;;;2021340;29;20301;-71
2024/03/24 04:14:23;;;;;;;0.60;0.60;;;2.10;99.90;;;;;;2023135;29;20626;-71
2024/03/24 04:15:25;;;;;;;0.93;0.70;;;2.20;99.90;;;;;;2020954;29;20264;-70
2024/03/24 04:16:26;;;;;;;0.77;0.75;;;2.20;99.90;;;;;;2021362;29;20277;-70
2024/03/24 04:17:28;;;;;;;0.60;0.60;;;2.20;99.90;;;;;;2021319;29;20324;-70
2024/03/24 04:18:29;;;;;;;3.40;1.38;;;2.20;99.90;;;;;;2022862;29;20313;-70
2024/03/24 04:19:29;;;;;;;1.60;1.10;;;2.20;99.90;;;;;;2017704;29;20370;-70
2024/03/24 04:20:30;;;;;;;2.23;0.80;;;2.20;99.90;;;;;;2017532;29;20234;-70
2024/03/24 04:21:31;;;;;;;2.17;1.03;;;2.20;99.90;;;;;;2021076;29;20227;-70
2024/03/24 04:22:33;;;;;;;1.73;0.90;;;2.20;99.90;;;;;;2021235;29;20298;-70
2024/03/24 04:23:33;;;;;;;0.63;0.60;;;2.20;99.90;;;;;;2022802;29;20239;-69
2024/03/24 04:24:34;;;;;;;0.80;0.80;;;2.30;99.90;;;;;;2013586;29;20791;-69
2024/03/24 04:25:35;;;;;;;0.70;0.70;;;2.20;99.90;;;;;;2020620;29;20240;-70
2024/03/24 04:26:35;;;;;;;3.10;0.70;;;2.20;99.90;;;;;;2030797;29;20240;-69
2024/03/24 04:27:36;;;;;;;1.57;0.63;;;2.30;99.90;;;;;;2036582;29;20233;-70
2024/03/24 04:28:37;;;;;;;0.93;0.70;;;2.30;99.90;;;;;;2026049;29;20258;-70
2024/03/24 04:29:38;;;;;;;0.60;0.60;;;2.30;99.90;;;;;;2025541;29;20232;-70
2024/03/24 04:30:38;;;;;;;0.70;0.50;;;2.20;99.90;;;;;;2024691;29;20270;-70
2024/03/24 04:31:39;;;;;;;1.03;0.80;;;2.30;99.90;;;;;;2026089;29;20240;-70
2024/03/24 04:32:40;;;;;;;0.53;0.50;;;2.30;99.90;;;;;;2038289;29;20224;-70
2024/03/24 04:33:40;;;;;;;1.37;0.60;;;2.30;99.90;;;;;;2038249;29;20241;-70
2024/03/24 04:34:41;;;;;;;0.60;0.50;;;2.30;99.90;;;;;;2029956;29;20229;-70
2024/03/24 04:35:42;;;;;;;0.40;0.40;;;2.30;99.90;;;;;;2030105;29;20229;-70
2024/03/24 04:36:43;;;;;;;0.75;0.60;;;2.20;99.90;;;;;;2025102;29;20275;-70
2024/03/24 04:37:44;;;;;;;1.90;0.60;;;2.20;99.90;;;;;;2025353;29;20234;-70
2024/03/24 04:38:45;;;;;;;0.80;0.80;;;2.10;99.90;;;;;;2036510;29;20243;-70
2024/03/24 04:39:45;;;;;;;0.53;0.53;;;2.20;99.90;;;;;;2028784;29;20808;-70
2024/03/24 04:40:46;;;;;;;0.60;0.60;;;2.10;99.90;;;;;;2021678;29;20610;-70
2024/03/24 04:41:47;;;;;;;0.67;0.53;;;2.20;99.90;;;;;;2029445;29;20234;-71
2024/03/24 04:42:48;;;;;;;0.83;0.60;;;2.20;99.90;;;;;;2034429;29;20238;-70
2024/03/24 04:43:50;;;;;;;0.85;0.63;;;2.20;99.90;;;;;;2037694;29;20336;-70
2024/03/24 04:44:51;;;;;;;0.60;0.60;;;2.20;99.90;;;;;;2031031;29;20314;-70
2024/03/24 04:45:51;;;;;;;0.63;0.63;;;2.20;99.90;;;;;;2030320;29;20328;-71
2024/03/24 04:46:53;;;;;;;1.87;0.80;;;2.30;99.90;;;;;;2029337;29;20239;-70
2024/03/24 04:47:54;;;;;;;0.43;0.43;;;2.30;99.90;;;;;;2029208;29;20233;-69
2024/03/24 04:48:54;;;;;;;0.50;0.50;;;2.20;99.90;;;;;;2034476;29;20243;-70
2024/03/24 04:49:55;;;;;;;0.40;0.40;;;2.10;99.90;;;;;;2024688;29;20710;-71
2024/03/24 04:50:56;;;;;;;0.50;0.50;;;2.00;99.90;;;;;;2013081;29;20252;-70
2024/03/24 04:51:57;;;;;;;0.60;0.60;;;2.00;99.90;;;;;;2021556;29;20259;-70
2024/03/24 04:52:58;;;;;;;0.50;0.50;;;2.00;99.90;;;;;;2030470;29;20822;-70
2024/03/24 04:53:59;;;;;;;0.40;0.40;;;2.00;99.90;;;;;;2021254;29;20236;-70
2024/03/24 04:55:00;;;;;;;0.53;0.40;;;2.00;99.90;;;;;;2014427;29;20241;-70
2024/03/24 04:56:02;;;;;;;1.47;0.50;;;1.90;99.90;;;;;;2015097;29;20265;-70
2024/03/24 04:57:03;;;;;;;0.88;0.68;;;1.80;99.90;;;;;;2005985;29;20290;-69
2024/03/24 04:58:03;;;;;;;0.97;0.50;;;1.70;99.90;;;;;;2016872;29;20654;-70
2024/03/24 04:59:04;;;;;;;0.50;0.50;;;1.70;99.90;;;;;;2023446;29;20205;-70
2024/03/24 05:00:07;;;;;;;0.47;0.47;;;1.60;99.90;;;;;;2029424;29;20642;-69
2024/03/24 05:01:08;;;;;;;0.70;0.60;;;1.50;99.90;;;;;;2030137;29;20233;-70
2024/03/24 05:02:08;;;;;;;1.20;0.60;;;1.50;99.90;;;;;;2022781;29;20192;-70
2024/03/24 05:03:09;;;;;;;0.40;0.40;;;1.50;99.90;;;;;;2016213;29;20204;-70
2024/03/24 05:04:10;;;;;;;1.33;0.60;;;1.60;99.90;;;;;;2022663;29;20192;-70
2024/03/24 05:05:11;;;;;;;0.50;0.50;;;1.60;99.90;;;;;;2031076;29;20693;-70
2024/03/24 05:06:12;;;;;;;1.50;0.55;;;1.60;99.90;;;;;;2022799;29;20327;-70
2024/03/24 05:07:12;;;;;;;0.40;0.40;;;1.50;99.90;;;;;;2030970;29;20189;-70
2024/03/24 05:08:14;;;;;;;1.37;0.60;;;1.50;99.90;;;;;;2015110;29;20191;-70
2024/03/24 05:09:16;;;;;;;0.55;0.50;;;1.50;99.90;;;;;;2015217;29;20197;-71
2024/03/24 05:10:18;;;;;;;0.60;0.60;;;1.60;99.90;;;;;;2019854;29;20198;-70
2024/03/24 05:11:19;;;;;;;0.73;0.60;;;1.60;99.90;;;;;;2021585;29;20282;-70
2024/03/24 05:12:20;;;;;;;0.70;0.60;;;1.70;99.90;;;;;;2027586;29;20186;-70
2024/03/24 05:13:20;;;;;;;0.80;0.80;;;1.70;99.90;;;;;;2033946;29;20235;-70
2024/03/24 05:14:21;;;;;;;0.60;0.60;;;1.70;99.90;;;;;;2037588;29;20243;-70
2024/03/24 05:15:22;;;;;;;0.50;0.50;;;1.70;99.90;;;;;;2025235;29;20701;-71
2024/03/24 05:16:24;;;;;;;0.80;0.43;;;1.60;99.90;;;;;;2033607;29;20235;-70
2024/03/24 05:17:25;;;;;;;1.23;0.70;;;1.70;99.90;;;;;;2026130;29;20262;-70
2024/03/24 05:18:26;;;;;;;0.77;0.77;;;1.60;99.90;;;;;;2020422;29;20752;-70
2024/03/24 05:19:27;;;;;;;0.50;0.50;;;1.60;99.90;;;;;;2026864;29;20245;-70
2024/03/24 05:20:27;;;;;;;1.27;0.60;;;1.60;99.90;;;;;;2021670;29;20283;-71
2024/03/24 05:21:28;;;;;;;0.57;0.57;;;1.70;99.90;;;;;;2030506;29;20236;-70